Time;durP1;ratioP1;P1;durP2;ratioP2;P2;SDS_P1;SDS_P2;PMS_P1;PMS_P2;Temp;Humidity;BMP_temperature;BMP_pressure;BME280_temperature;BME280_humidity;BME280_pressure;Samples;Min_cycle;Max_cycle;Signal;HPM_P1;HPM_P2
2022/05/04 00:02:11;;;;;;;24.20;17.63;;;;;;;12.19;84.80;100222.03;10375846;28;20458;-74
2022/05/04 00:07:12;;;;;;;28.25;17.63;;;;;;;12.15;83.93;100222.59;10375625;28;20045;-73
2022/05/04 00:12:13;;;;;;;21.58;16.05;;;;;;;11.71;83.48;100149.59;10374910;28;20048;-73
2022/05/04 00:17:14;;;;;;;17.63;13.85;;;;;;;12.04;82.69;100206.03;10375744;28;20149;-74
2022/05/04 00:22:20;;;;;;;18.98;13.77;;;;;;;11.17;80.85;100075.25;10374605;28;20516;-73
2022/05/04 00:27:21;;;;;;;20.83;13.25;;;;;;;11.96;81.26;100203.44;10375362;28;20068;-73
2022/05/04 00:32:22;;;;;;;20.50;13.57;;;;;;;11.45;80.34;100130.53;10357287;28;20476;-73
2022/05/04 00:37:23;;;;;;;20.65;12.43;;;;;;;11.86;79.75;100209.03;10357040;28;20060;-73
2022/05/04 00:42:24;;;;;;;21.85;12.57;;;;;;;11.46;79.62;100156.09;10374742;28;20041;-73
2022/05/04 00:47:24;;;;;;;20.15;12.13;;;;;;;11.71;79.37;100205.47;10373813;28;20049;-73
2022/05/04 00:52:25;;;;;;;20.98;12.70;;;;;;;10.22;79.43;99974.56;10356399;28;20037;-73
2022/05/04 01:02:46;;;;;;;31.85;11.68;;;;;;;11.74;79.98;100212.28;10373756;28;20555;-73
2022/05/04 01:07:48;;;;;;;17.30;11.88;;;;;;;11.38;79.37;100170.31;10373681;28;20133;-74
2022/05/04 01:12:53;;;;;;;18.42;12.00;;;;;;;10.93;79.27;100106.31;10372744;28;20103;-73
2022/05/04 01:17:53;;;;;;;18.15;11.43;;;;;;;11.61;79.46;100216.34;10372967;28;20046;-73
2022/05/04 01:22:55;;;;;;;19.13;10.68;;;;;;;11.56;79.33;100224.03;10372516;28;20132;-73
2022/05/04 01:27:55;;;;;;;14.80;10.75;;;;;;;11.35;79.23;100207.91;10372138;28;20046;-73
2022/05/04 01:32:56;;;;;;;18.73;11.27;;;;;;;10.40;79.34;100070.72;10372305;28;20112;-73
2022/05/04 01:37:57;;;;;;;19.08;10.43;;;;;;;11.00;79.54;100185.34;10372440;28;20038;-73
2022/05/04 01:42:59;;;;;;;17.10;11.20;;;;;;;10.14;79.73;100062.19;10371991;28;20096;-73
2022/05/04 01:48:00;;;;;;;14.07;9.80;;;;;;;10.85;80.40;100198.53;10371750;28;20064;-73
2022/05/04 01:53:01;;;;;;;14.13;10.95;;;;;;;10.59;80.27;100177.53;10373029;28;20038;-73
2022/05/04 01:58:03;;;;;;;14.60;10.57;;;;;;;10.49;80.56;100180.41;10376991;28;20049;-72
2022/05/04 02:03:04;;;;;;;12.93;9.98;;;;;;;10.57;80.76;100185.69;10380346;28;20038;-73
2022/05/04 02:08:05;;;;;;;17.35;10.88;;;;;;;10.85;81.17;100223.28;10380342;28;20034;-73
2022/05/04 02:13:06;;;;;;;13.50;10.95;;;;;;;10.74;81.20;100221.00;10380366;28;20141;-73
2022/05/04 02:18:07;;;;;;;19.25;11.30;;;;;;;10.34;81.19;100159.03;10380133;28;20125;-73
2022/05/04 02:23:09;;;;;;;16.38;11.32;;;;;;;10.01;81.36;100127.25;10380235;28;20092;-73
2022/05/04 02:28:09;;;;;;;14.10;10.73;;;;;;;10.74;81.45;100237.78;10380038;28;20469;-73
2022/05/04 02:33:11;;;;;;;13.95;10.73;;;;;;;10.00;80.74;100100.91;10378853;28;20124;-73
2022/05/04 02:38:12;;;;;;;14.52;11.40;;;;;;;10.95;80.57;100226.56;10378825;28;20042;-73
2022/05/04 02:43:13;;;;;;;15.45;10.75;;;;;;;10.65;80.26;100179.50;10378178;28;20521;-72
2022/05/04 02:48:13;;;;;;;14.30;10.93;;;;;;;10.92;80.10;100200.34;10378874;28;20042;-72
2022/05/04 02:53:14;;;;;;;14.75;10.75;;;;;;;11.17;79.40;100202.84;10377730;28;20092;-73
2022/05/04 02:58:15;;;;;;;11.13;9.27;;;;;;;10.86;78.46;100131.09;10378814;28;20081;-74
2022/05/04 03:03:16;;;;;;;17.05;10.15;;;;;;;11.43;77.97;100219.31;10378903;28;20402;-74
2022/05/04 03:08:17;;;;;;;17.42;10.50;;;;;;;11.45;77.82;100207.66;10374211;28;20096;-73
2022/05/04 03:13:18;;;;;;;18.33;9.75;;;;;;;12.17;76.24;100245.34;10337243;28;20089;-73
2022/05/04 03:18:19;;;;;;;14.02;9.90;;;;;;;12.73;75.03;100242.28;10347545;28;20042;-74
2022/05/04 03:23:20;;;;;;;23.50;10.15;;;;;;;13.33;73.77;100211.84;10337076;28;20038;-74
2022/05/04 03:28:21;;;;;;;16.00;9.65;;;;;;;13.52;71.81;100141.03;10351134;28;20045;-74
2022/05/04 03:33:21;;;;;;;19.88;9.07;;;;;;;14.81;70.19;100267.13;10372589;28;20045;-74
2022/05/04 03:38:22;;;;;;;11.77;9.00;;;;;;;15.37;68.51;100266.09;10370765;28;20034;-75
2022/05/04 03:43:23;;;;;;;12.02;8.55;;;;;;;15.32;67.96;100216.91;10374837;28;20120;-74
2022/05/04 03:48:24;;;;;;;13.40;7.15;;;;;;;15.96;66.93;100227.94;10372754;28;20045;-74
2022/05/04 03:53:25;;;;;;;12.23;7.32;;;;;;;16.01;65.83;100151.50;10374539;28;20048;-75
2022/05/04 03:58:26;;;;;;;17.45;6.53;;;;;;;17.16;64.90;100267.94;10375442;28;20049;-75
2022/05/04 04:03:27;;;;;;;8.48;5.47;;;;;;;17.00;63.53;100185.25;10375823;28;20061;-75
2022/05/04 04:08:29;;;;;;;14.05;6.20;;;;;;;17.30;62.67;100215.84;10364409;28;20049;-74
2022/05/04 04:13:30;;;;;;;8.13;6.57;;;;;;;17.30;62.95;100221.22;10348399;28;20147;-73
2022/05/04 04:18:31;;;;;;;9.32;7.13;;;;;;;17.71;62.27;100272.81;10366225;28;20042;-74
2022/05/04 04:23:33;;;;;;;13.70;6.80;;;;;;;17.77;61.72;100288.09;10373424;28;20184;-76
2022/05/04 04:28:36;;;;;;;11.15;7.35;;;;;;;16.89;61.25;100112.41;10374792;28;20052;-74
2022/05/04 04:33:37;;;;;;;11.32;7.20;;;;;;;17.71;60.65;100154.59;10373846;28;20120;-73
2022/05/04 04:38:38;;;;;;;12.20;7.13;;;;;;;17.99;59.71;100148.81;10374816;28;20414;-74
2022/05/04 04:43:39;;;;;;;8.38;6.45;;;;;;;17.55;59.14;100138.00;10373868;28;20037;-73
2022/05/04 04:48:39;;;;;;;8.25;5.30;;;;;;;18.60;58.04;100257.44;10372828;28;20037;-73
2022/05/04 04:53:40;;;;;;;8.50;5.03;;;;;;;17.77;58.00;100111.63;10356889;28;20068;-77
2022/05/04 04:58:41;;;;;;;12.43;5.30;;;;;;;18.02;58.12;100210.19;10373225;28;20044;-76
2022/05/04 05:03:42;;;;;;;22.60;6.82;;;;;;;17.74;59.22;100240.16;10355659;28;20042;-73
2022/05/04 05:08:43;;;;;;;10.95;5.22;;;;;;;17.40;60.09;100211.88;10353833;28;20081;-79
2022/05/04 05:19:04;;;;;;;7.22;3.70;;;;;;;17.11;59.97;100214.06;10373097;28;20379;-73
2022/05/04 05:24:05;;;;;;;14.40;4.57;;;;;;;16.83;59.13;100171.47;10371696;28;20084;-75
2022/05/04 05:29:06;;;;;;;8.02;4.32;;;;;;;17.22;59.12;100202.66;10372698;28;20045;-76
2022/05/04 05:34:07;;;;;;;5.90;3.63;;;;;;;16.52;59.45;100078.34;10371739;28;20042;-73
2022/05/04 05:39:07;;;;;;;14.30;5.40;;;;;;;17.94;59.34;100242.72;10372717;28;20034;-74
2022/05/04 05:44:10;;;;;;;10.55;7.10;;;;;;;17.40;58.01;100140.19;10371778;28;20561;-73
2022/05/04 05:49:10;;;;;;;13.98;9.05;;;;;;;17.28;58.18;100156.16;10372921;28;20141;-75
2022/05/04 05:54:11;;;;;;;17.05;9.57;;;;;;;16.88;56.89;100067.84;10372866;28;20044;-72
2022/05/04 05:59:12;;;;;;;22.27;13.40;;;;;;;18.07;57.14;100266.81;10371859;28;20065;-73
2022/05/04 06:04:13;;;;;;;17.98;12.50;;;;;;;17.31;57.86;100095.84;10370240;28;20103;-73
2022/05/04 06:09:14;;;;;;;15.65;11.70;;;;;;;17.44;56.43;100102.97;10371427;28;20042;-76
2022/05/04 06:14:15;;;;;;;21.30;17.02;;;;;;;18.25;56.50;100207.72;10354260;28;20062;-73
2022/05/04 06:19:15;;;;;;;35.53;22.33;;;;;;;18.06;56.26;100141.50;10371128;28;20048;-76
2022/05/04 06:24:16;;;;;;;26.23;20.10;;;;;;;19.01;56.02;100267.56;10372048;28;20042;-74
2022/05/04 06:29:17;;;;;;;35.08;25.80;;;;;;;18.86;54.28;100221.38;10370772;28;20419;-75
2022/05/04 06:34:18;;;;;;;28.33;21.70;;;;;;;18.59;53.98;100189.34;10371589;28;20034;-74
2022/05/04 06:39:18;;;;;;;28.25;21.67;;;;;;;18.91;54.80;100221.53;10371735;28;20042;-73
2022/05/04 06:44:19;;;;;;;26.23;19.35;;;;;;;19.42;54.39;100233.69;10368835;28;20044;-74
2022/05/04 06:49:20;;;;;;;29.63;23.80;;;;;;;17.32;52.09;99913.06;10378686;28;20049;-74
2022/05/04 06:54:21;;;;;;;34.38;26.75;;;;;;;18.53;52.18;100098.78;10377117;28;20037;-78
2022/05/04 06:59:21;;;;;;;36.85;28.40;;;;;;;18.79;52.93;100131.84;10377950;28;20582;-75
2022/05/04 07:04:22;;;;;;;37.08;27.50;;;;;;;19.27;52.54;100249.44;10377909;28;20034;-75
2022/05/04 07:09:23;;;;;;;32.88;24.60;;;;;;;19.46;52.45;100242.94;10377189;28;20132;-73
2022/05/04 07:14:24;;;;;;;37.40;28.75;;;;;;;19.61;51.16;100243.34;10377652;28;20058;-79
2022/05/04 07:19:25;;;;;;;35.85;30.17;;;;;;;18.59;51.29;100081.75;10377825;28;20498;-76
2022/05/04 07:24:26;;;;;;;41.40;33.15;;;;;;;19.93;50.80;100231.50;10377670;28;20042;-76
2022/05/04 07:29:27;;;;;;;45.38;35.13;;;;;;;19.82;50.51;100225.03;10377011;28;20069;-68
2022/05/04 07:34:28;;;;;;;55.83;42.30;;;;;;;19.74;50.23;100234.31;10377046;28;20072;-67
2022/05/04 07:44:59;;;;;;;57.00;45.92;;;;;;;19.96;49.68;100226.47;10377278;28;20045;-68
2022/05/04 07:50:00;;;;;;;68.72;49.38;;;;;;;19.61;50.12;100140.94;10376597;28;20049;-67
2022/05/04 07:55:02;;;;;;;59.60;47.47;;;;;;;20.32;49.64;100215.72;10375524;28;20048;-68
2022/05/04 08:05:24;;;;;;;59.08;46.03;;;;;;;20.35;49.78;100205.25;10375929;28;20034;-67
2022/05/04 08:10:25;;;;;;;77.80;47.53;;;;;;;20.21;48.76;100158.81;10375612;28;20149;-66
2022/05/04 08:15:27;;;;;;;61.25;46.75;;;;;;;19.72;49.70;100119.69;10375591;28;20506;-68
2022/05/04 08:20:29;;;;;;;65.10;48.53;;;;;;;19.87;50.13;100195.53;10374808;28;20441;-67
2022/05/04 08:25:31;;;;;;;62.88;49.60;;;;;;;19.34;51.19;100175.56;10374078;28;20441;-67
2022/05/04 08:30:31;;;;;;;57.80;48.17;;;;;;;19.59;50.95;100186.19;10374206;28;20053;-67
2022/05/04 08:35:34;;;;;;;65.45;47.10;;;;;;;19.42;50.65;100185.22;10374602;28;20061;-67
2022/05/04 08:40:36;;;;;;;56.05;44.47;;;;;;;19.39;51.36;100191.06;10374098;28;20045;-67
2022/05/04 08:45:39;;;;;;;64.82;51.95;;;;;;;19.62;51.63;100182.19;10374543;28;20073;-68
2022/05/04 08:50:39;;;;;;;70.53;53.47;;;;;;;19.61;51.04;100192.16;10374593;28;20449;-67
2022/05/04 08:55:41;;;;;;;58.42;50.53;;;;;;;19.95;48.39;100183.56;10373865;28;20121;-67
2022/05/04 09:00:42;;;;;;;71.55;48.92;;;;;;;20.09;49.04;100184.16;10373924;28;20048;-68
2022/05/04 09:05:47;;;;;;;62.65;50.22;;;;;;;19.46;49.23;100084.00;10373440;28;20041;-67
2022/05/04 09:10:47;;;;;;;67.05;55.03;;;;;;;19.68;49.05;100172.41;10373796;28;20609;-66
2022/05/04 09:15:51;;;;;;;80.07;52.05;;;;;;;20.19;48.98;100185.22;10373444;28;20165;-67
2022/05/04 09:20:55;;;;;;;56.65;45.60;;;;;;;20.20;47.23;100095.16;10372408;28;20041;-67
2022/05/04 09:26:07;;;;;;;47.72;36.10;;;;;;;19.63;46.79;100049.13;10372314;28;20049;-67
2022/05/04 09:31:08;;;;;;;46.35;35.03;;;;;;;19.82;48.11;100141.47;10373001;28;20091;-67
2022/05/04 09:36:11;;;;;;;34.10;27.95;;;;;;;19.90;48.13;100107.97;10372876;28;20046;-69
2022/05/04 09:46:39;;;;;;;31.55;20.98;;;;;;;20.11;47.46;100123.53;10372228;28;20077;-68
2022/05/04 09:51:43;;;;;;;20.65;15.70;;;;;;;19.91;47.02;100163.53;10372487;28;20129;-68
2022/05/04 09:56:46;;;;;;;21.75;12.98;;;;;;;20.37;47.38;100164.53;10371625;28;20056;-68
2022/05/04 10:01:49;;;;;;;14.83;9.67;;;;;;;20.43;46.66;100148.25;10372220;28;20038;-71
2022/05/04 10:06:51;;;;;;;15.98;10.68;;;;;;;20.16;46.19;100045.47;10372192;28;20113;-69
2022/05/04 10:11:57;;;;;;;13.88;8.93;;;;;;;20.56;46.38;100154.47;10364231;28;20128;-67
2022/05/04 10:17:11;;;;;;;11.23;6.80;;;;;;;19.95;46.82;100052.28;10374485;28;20057;-66
2022/05/04 10:22:16;;;;;;;21.30;6.53;;;;;;;20.77;46.38;100143.03;10380245;28;20440;-67
2022/05/04 10:27:17;;;;;;;9.57;4.93;;;;;;;21.06;46.54;100135.75;10379599;28;20462;-69
2022/05/04 10:32:30;;;;;;;15.10;4.90;;;;;;;21.20;46.37;100144.34;10379011;28;20038;-67
2022/05/04 10:37:31;;;;;;;12.00;4.43;;;;;;;21.02;46.22;100139.97;10378749;28;20046;-67
2022/05/04 10:42:57;;;;;;;8.50;3.80;;;;;;;21.26;44.74;100127.16;10379424;28;20037;-67
2022/05/04 10:48:20;;;;;;;10.10;4.32;;;;;;;21.18;45.58;100124.88;10378463;28;20069;-67
2022/05/04 10:53:35;;;;;;;18.25;3.92;;;;;;;19.94;46.48;99985.13;10378934;28;20441;-69
2022/05/04 10:59:06;;;;;;;11.25;3.75;;;;;;;20.14;45.25;100041.34;10378204;28;20080;-69
2022/05/04 11:04:10;;;;;;;7.38;2.70;;;;;;;20.69;46.04;100109.13;10377738;28;20104;-68
2022/05/04 11:09:15;;;;;;;7.80;2.40;;;;;;;20.96;45.29;100076.94;10378257;28;20038;-68
2022/05/04 11:14:18;;;;;;;9.05;2.28;;;;;;;21.15;45.64;100071.34;10377272;28;20060;-68
2022/05/04 11:19:22;;;;;;;6.72;2.38;;;;;;;21.09;46.11;100058.81;10377347;28;20124;-68
2022/05/04 11:24:25;;;;;;;14.68;2.28;;;;;;;21.15;47.25;100076.75;10377184;28;20038;-67
2022/05/04 11:29:28;;;;;;;13.02;2.03;;;;;;;21.35;45.96;100050.06;10376586;28;20046;-67
2022/05/04 11:34:37;;;;;;;11.75;2.15;;;;;;;21.41;44.80;100083.41;10376601;28;20073;-67
2022/05/04 11:39:39;;;;;;;10.52;2.03;;;;;;;20.84;44.93;99973.59;10376438;28;20052;-67
2022/05/04 11:44:46;;;;;;;12.40;2.40;;;;;;;21.47;45.42;100076.22;10376188;28;20045;-68
2022/05/04 11:49:47;;;;;;;13.68;1.88;;;;;;;21.47;44.95;100046.47;10376270;28;20508;-68
2022/05/04 11:54:48;;;;;;;12.13;2.53;;;;;;;21.01;44.89;99935.00;10375850;28;20140;-67
2022/05/04 11:59:49;;;;;;;14.07;2.10;;;;;;;21.60;45.61;100044.25;10376094;28;20107;-67
2022/05/04 12:04:50;;;;;;;8.57;1.83;;;;;;;21.39;46.00;100056.66;10375438;28;20065;-67
2022/05/04 12:09:51;;;;;;;8.95;2.45;;;;;;;21.19;46.00;100056.28;10375889;28;20038;-67
2022/05/04 12:14:53;;;;;;;18.20;2.95;;;;;;;21.22;46.45;100049.56;10375667;28;20053;-67
2022/05/04 12:19:54;;;;;;;10.23;2.13;;;;;;;21.65;45.93;100048.91;10374748;28;20042;-67
2022/05/04 12:24:55;;;;;;;13.15;2.38;;;;;;;21.51;45.33;100053.03;10374681;28;20119;-67
2022/05/04 12:35:22;;;;;;;7.40;1.98;;;;;;;20.71;45.98;100060.31;10364566;28;20476;-67
2022/05/04 12:40:25;;;;;;;15.93;2.75;;;;;;;20.71;46.82;100052.22;10344471;28;20472;-67
2022/05/04 12:45:27;;;;;;;22.57;2.57;;;;;;;20.77;47.42;100048.53;10365655;28;20092;-72
2022/05/04 12:50:29;;;;;;;24.52;3.25;;;;;;;20.54;47.65;100025.16;10359939;28;20042;-73
2022/05/04 13:00:50;;;;;;;17.77;2.35;;;;;;;20.54;46.89;100043.25;10358428;28;20050;-72
2022/05/04 13:05:51;;;;;;;8.38;2.10;;;;;;;20.38;47.65;100037.53;10333136;28;20030;-72
2022/05/04 13:10:52;;;;;;;12.70;2.10;;;;;;;20.65;47.29;100061.28;10342660;28;20038;-72
2022/05/04 13:15:53;;;;;;;12.48;2.15;;;;;;;20.43;47.43;100061.91;10373318;28;20422;-72
2022/05/04 13:20:54;;;;;;;16.55;2.10;;;;;;;20.25;47.15;100000.03;10371823;28;20080;-72
2022/05/04 13:25:55;;;;;;;12.38;2.30;;;;;;;19.64;47.96;99918.72;10370498;28;20077;-72
2022/05/04 13:30:56;;;;;;;24.95;2.83;;;;;;;19.94;47.72;100004.81;10335300;28;20053;-72
2022/05/04 13:35:57;;;;;;;19.00;2.47;;;;;;;19.19;48.25;99888.94;10353821;28;20046;-71
2022/05/04 13:40:58;;;;;;;12.27;2.35;;;;;;;19.43;47.68;99873.56;10360407;28;20066;-72
2022/05/04 13:45:59;;;;;;;14.57;2.25;;;;;;;19.43;47.53;99895.09;10371828;28;20080;-72
2022/05/04 13:56:39;;;;;;;15.88;2.55;;;;;;;19.98;47.55;100007.84;10286469;28;20411;-74
2022/05/04 14:01:40;;;;;;;41.17;3.35;;;;;;;19.85;48.08;99990.06;10329292;28;20057;-72
2022/05/04 14:06:42;;;;;;;19.40;2.05;;;;;;;19.02;48.26;99878.84;10342030;28;20049;-72
2022/05/04 14:11:43;;;;;;;20.63;2.22;;;;;;;19.55;49.27;99988.31;10354565;28;20073;-71
2022/05/04 14:16:44;;;;;;;18.15;2.15;;;;;;;20.02;48.72;100000.94;10332349;28;20094;-73
2022/05/04 14:21:45;;;;;;;14.75;2.30;;;;;;;20.11;48.01;99972.53;10331232;28;20092;-72
2022/05/04 14:26:47;;;;;;;27.13;2.55;;;;;;;18.47;48.78;99756.25;10330489;28;20055;-75
2022/05/04 14:31:49;;;;;;;14.85;2.40;;;;;;;19.03;49.78;99882.41;10331088;28;20030;-75
2022/05/04 14:36:50;;;;;;;15.00;2.75;;;;;;;19.37;49.98;99978.47;10339732;28;20060;-74
2022/05/04 14:41:51;;;;;;;18.42;3.47;;;;;;;19.21;50.63;99981.88;10354179;28;20042;-74
2022/05/04 14:46:52;;;;;;;30.55;3.40;;;;;;;19.23;51.07;99993.22;10313444;28;20433;-74
2022/05/04 14:51:53;;;;;;;10.95;2.47;;;;;;;18.37;51.13;99868.97;10330142;28;20042;-75
2022/05/04 14:56:54;;;;;;;23.52;3.42;;;;;;;18.84;51.44;99968.59;10330158;28;20046;-75
2022/05/04 15:01:55;;;;;;;13.82;2.40;;;;;;;18.93;51.89;100002.22;10330565;28;20050;-74
2022/05/04 15:06:55;;;;;;;20.10;3.63;;;;;;;18.83;52.10;100001.16;10355499;28;20053;-74
2022/05/04 15:11:57;;;;;;;14.02;3.53;;;;;;;18.49;52.23;99968.50;10337402;28;20050;-73
2022/05/04 15:16:58;;;;;;;10.82;2.40;;;;;;;18.51;52.67;99987.91;10337926;28;20062;-73
2022/05/04 15:21:59;;;;;;;18.38;4.05;;;;;;;18.07;53.99;99955.00;10336617;28;20498;-74
2022/05/04 15:27:00;;;;;;;14.82;3.53;;;;;;;18.15;54.71;99995.00;10319650;28;20042;-73
2022/05/04 15:32:01;;;;;;;48.35;4.47;;;;;;;17.94;55.55;99992.78;10336751;28;20038;-74
2022/05/04 15:37:03;;;;;;;22.50;4.55;;;;;;;17.18;55.82;99878.53;10337021;28;20038;-73
2022/05/04 15:42:04;;;;;;;29.08;4.25;;;;;;;17.79;56.54;100004.72;10369170;28;20129;-77
2022/05/04 15:47:05;;;;;;;16.55;4.32;;;;;;;16.17;56.73;99749.06;10376163;28;20128;-77
2022/05/04 15:52:08;;;;;;;15.35;4.57;;;;;;;17.58;57.86;100003.25;10376085;28;20487;-76
2022/05/04 15:57:09;;;;;;;31.88;5.45;;;;;;;17.41;58.68;100001.38;10373617;28;20523;-75
2022/05/04 16:02:10;;;;;;;46.65;6.13;;;;;;;17.07;59.39;100004.34;10376579;28;20042;-78
2022/05/04 16:07:11;;;;;;;24.02;5.13;;;;;;;16.94;60.91;99998.28;10370025;28;20410;-74
2022/05/04 16:12:13;;;;;;;17.30;4.88;;;;;;;16.57;61.62;99987.34;10366588;28;20045;-75
2022/05/04 16:22:33;;;;;;;14.85;4.78;;;;;;;15.92;64.78;99966.03;10367390;28;20049;-73
2022/05/04 16:27:34;;;;;;;33.22;5.00;;;;;;;15.97;65.80;100019.78;10360161;28;20552;-73
2022/05/04 16:32:35;;;;;;;31.63;5.70;;;;;;;14.92;66.59;99885.13;10344068;28;20038;-73
2022/05/04 16:37:36;;;;;;;25.00;4.82;;;;;;;15.48;67.43;100010.41;10338466;28;20056;-73
2022/05/04 16:42:37;;;;;;;16.60;4.60;;;;;;;15.44;67.70;100017.22;10367128;28;20045;-74
2022/05/04 16:47:38;;;;;;;16.55;4.28;;;;;;;15.34;68.00;100006.91;10363218;28;20064;-73
2022/05/04 16:52:40;;;;;;;12.13;3.55;;;;;;;15.34;68.13;100033.66;10370631;28;20498;-78
2022/05/04 16:57:41;;;;;;;10.75;3.65;;;;;;;15.29;68.83;100030.81;10371558;28;20038;-74
2022/05/04 17:02:42;;;;;;;11.35;3.55;;;;;;;15.18;69.66;100026.88;10360142;28;20042;-76
2022/05/04 17:07:43;;;;;;;16.50;3.50;;;;;;;14.21;70.52;99901.69;10365437;28;20088;-75
2022/05/04 17:12:43;;;;;;;8.05;2.95;;;;;;;14.23;70.75;99926.38;10376085;28;20044;-75
2022/05/04 17:17:45;;;;;;;7.45;3.30;;;;;;;14.84;71.30;100044.75;10380459;28;20112;-74
2022/05/04 17:22:45;;;;;;;8.00;3.20;;;;;;;14.21;71.14;99936.44;10373370;28;20086;-74
2022/05/04 17:27:46;;;;;;;17.10;3.75;;;;;;;14.61;71.34;100015.72;10372284;28;20581;-74
2022/05/04 17:38:06;;;;;;;10.50;3.35;;;;;;;14.59;72.36;100041.00;10354550;28;20050;-74
2022/05/04 17:43:07;;;;;;;11.93;2.92;;;;;;;14.54;72.46;100043.47;10358725;28;20100;-74
2022/05/04 17:48:08;;;;;;;8.75;3.10;;;;;;;13.44;73.19;99877.00;10371874;28;20046;-73
2022/05/04 17:53:09;;;;;;;9.40;3.00;;;;;;;12.72;73.51;99776.91;10371937;28;20065;-73
2022/05/04 17:58:10;;;;;;;13.30;3.63;;;;;;;14.19;74.05;100026.66;10372804;28;20048;-74
2022/05/04 18:08:30;;;;;;;20.60;3.38;;;;;;;14.01;75.75;100025.34;10369995;28;20045;-74
2022/05/04 18:13:31;;;;;;;11.15;3.30;;;;;;;13.75;75.92;100022.53;10368419;28;20812;-74
2022/05/04 18:18:33;;;;;;;9.10;3.10;;;;;;;13.60;76.49;100020.78;10350839;28;20057;-74
2022/05/04 18:23:34;;;;;;;13.23;3.55;;;;;;;13.69;76.90;100037.47;10369936;28;20046;-74
2022/05/04 18:28:34;;;;;;;7.82;3.25;;;;;;;13.45;76.71;100010.22;10372456;28;20030;-74
2022/05/04 18:33:35;;;;;;;13.38;3.20;;;;;;;13.20;77.57;99987.66;10370998;28;20468;-73
2022/05/04 18:38:36;;;;;;;16.83;3.45;;;;;;;12.97;78.25;99971.88;10374124;28;20046;-74
2022/05/04 18:43:37;;;;;;;34.13;5.65;;;;;;;12.88;79.27;99986.34;10377875;28;20140;-74
2022/05/04 18:48:37;;;;;;;14.23;3.63;;;;;;;13.01;79.77;100018.44;10361189;28;20171;-74
2022/05/04 18:53:39;;;;;;;9.95;3.42;;;;;;;12.84;80.14;100004.56;10377046;28;20497;-74
2022/05/04 18:58:40;;;;;;;18.27;3.88;;;;;;;12.93;79.42;100013.28;10378022;28;20124;-74
2022/05/04 19:03:41;;;;;;;23.45;9.43;;;;;;;11.36;79.73;99760.94;10372325;28;20137;-74
2022/05/04 19:08:41;;;;;;;21.80;10.32;;;;;;;12.80;79.98;99992.63;10370939;28;20519;-74
2022/05/04 19:13:42;;;;;;;34.15;13.00;;;;;;;12.83;80.78;99994.91;10377822;28;20058;-73
2022/05/04 19:18:46;;;;;;;32.58;14.07;;;;;;;11.86;80.76;99843.56;10377132;28;20050;-75
2022/05/04 19:23:46;;;;;;;32.13;14.75;;;;;;;12.67;81.38;99972.00;10376576;28;20037;-73
2022/05/04 19:28:47;;;;;;;28.92;11.98;;;;;;;12.00;81.18;99863.19;10378044;28;20100;-74
2022/05/04 19:33:48;;;;;;;25.75;9.57;;;;;;;12.26;81.41;99899.88;10377409;28;20044;-74
2022/05/04 19:38:52;;;;;;;35.60;8.88;;;;;;;12.45;82.76;99941.06;10376625;28;20520;-74
2022/05/04 19:43:54;;;;;;;22.08;8.45;;;;;;;12.39;83.47;99944.50;10374146;28;20048;-73
2022/05/04 19:48:55;;;;;;;30.70;7.93;;;;;;;12.14;82.97;99920.84;10376041;28;20046;-73
2022/05/04 19:53:55;;;;;;;21.42;7.10;;;;;;;12.13;82.42;99934.38;10376266;28;20041;-73
2022/05/04 19:58:56;;;;;;;15.30;6.63;;;;;;;11.42;82.51;99824.00;10376706;28;20065;-74
2022/05/04 20:03:57;;;;;;;16.73;7.22;;;;;;;12.28;82.79;99967.94;10376034;28;20046;-73
2022/05/04 20:08:58;;;;;;;22.15;9.20;;;;;;;12.32;83.26;99998.53;10376106;28;20137;-73
2022/05/04 20:13:59;;;;;;;17.88;8.05;;;;;;;12.28;83.57;99980.44;10376035;28;20145;-73
2022/05/04 20:19:01;;;;;;;19.48;8.32;;;;;;;12.19;83.82;99984.22;10375435;28;20053;-74
2022/05/04 20:24:05;;;;;;;21.63;8.90;;;;;;;11.23;84.40;99832.56;10361341;28;20046;-74
2022/05/04 20:29:06;;;;;;;17.05;9.40;;;;;;;11.45;84.53;99883.97;10334757;28;20629;-72
2022/05/04 20:34:07;;;;;;;18.00;9.35;;;;;;;11.69;85.50;99948.53;10334379;28;20096;-73
2022/05/04 20:39:07;;;;;;;21.88;8.60;;;;;;;11.81;86.15;99981.66;10334730;28;20046;-72
2022/05/04 20:44:11;;;;;;;21.33;8.77;;;;;;;11.67;86.78;99959.38;10316527;28;20405;-73
2022/05/04 20:49:12;;;;;;;16.40;8.02;;;;;;;11.59;86.63;99954.16;10333094;28;20117;-73
2022/05/04 20:54:14;;;;;;;15.60;8.25;;;;;;;11.39;87.48;99952.03;10333708;28;20042;-73
2022/05/04 20:59:17;;;;;;;47.45;10.32;;;;;;;11.09;88.62;99934.41;10332977;28;20038;-73
2022/05/04 21:04:19;;;;;;;18.17;7.95;;;;;;;11.09;89.13;99937.06;10333156;28;20046;-73
2022/05/04 21:09:20;;;;;;;14.88;6.43;;;;;;;11.14;88.71;99937.34;10332644;28;20105;-73
2022/05/04 21:14:21;;;;;;;17.00;6.53;;;;;;;9.51;88.76;99684.69;10332574;28;20116;-73
2022/05/04 21:19:21;;;;;;;16.27;6.45;;;;;;;10.57;89.48;99869.63;10332082;28;20129;-73
2022/05/04 21:24:22;;;;;;;9.20;5.18;;;;;;;11.02;88.15;99918.38;10331595;28;20133;-73
2022/05/04 21:29:23;;;;;;;13.35;5.75;;;;;;;11.13;87.41;99925.09;10330992;28;20097;-73
2022/05/04 21:34:24;;;;;;;13.45;4.57;;;;;;;10.53;86.24;99796.63;10346832;28;20505;-73
2022/05/04 21:39:25;;;;;;;16.75;3.60;;;;;;;11.39;85.12;99895.34;10372728;28;20039;-73
2022/05/04 21:44:26;;;;;;;18.65;4.28;;;;;;;11.64;84.09;99907.38;10372935;28;20057;-73
2022/05/04 21:49:26;;;;;;;20.88;4.13;;;;;;;11.53;83.03;99872.44;10373544;28;20048;-73
2022/05/04 21:54:27;;;;;;;22.77;4.00;;;;;;;11.63;82.48;99879.09;10372909;28;20050;-74
2022/05/04 21:59:28;;;;;;;19.10;3.92;;;;;;;11.85;82.67;99881.84;10371867;28;20513;-73
2022/05/04 22:04:29;;;;;;;24.45;3.90;;;;;;;12.09;82.11;99912.63;10372379;28;20045;-73
2022/05/04 22:09:30;;;;;;;19.10;3.28;;;;;;;12.24;81.73;99913.41;10373195;28;20037;-73
2022/05/04 22:14:31;;;;;;;16.45;4.20;;;;;;;12.06;80.51;99868.56;10376406;28;20058;-73
2022/05/04 22:19:31;;;;;;;15.05;3.13;;;;;;;12.03;79.59;99862.81;10379657;28;20138;-73
2022/05/04 22:24:32;;;;;;;22.50;3.10;;;;;;;12.30;79.06;99901.16;10379951;28;20088;-73
2022/05/04 22:29:33;;;;;;;26.08;3.85;;;;;;;12.20;78.52;99922.75;10379761;28;20048;-73
2022/05/04 22:34:34;;;;;;;21.83;3.50;;;;;;;11.30;78.06;99782.94;10379652;28;20121;-73
2022/05/04 22:39:35;;;;;;;19.77;3.25;;;;;;;11.25;77.78;99780.03;10379585;28;20497;-73
2022/05/04 22:44:36;;;;;;;21.63;3.40;;;;;;;12.09;77.68;99926.75;10379464;28;20386;-74
2022/05/04 22:49:37;;;;;;;18.83;3.35;;;;;;;12.12;77.59;99906.09;10379732;28;20091;-73
2022/05/04 22:54:37;;;;;;;29.08;4.65;;;;;;;11.78;77.17;99855.13;10378904;28;20049;-73
2022/05/04 22:59:39;;;;;;;22.10;3.65;;;;;;;11.56;77.02;99809.03;10378087;28;20038;-73
2022/05/04 23:04:39;;;;;;;31.80;4.03;;;;;;;10.43;77.30;99653.50;10379087;28;20049;-73
2022/05/04 23:09:40;;;;;;;20.77;3.15;;;;;;;11.70;77.18;99873.06;10378147;28;20053;-74
2022/05/04 23:14:41;;;;;;;16.83;3.30;;;;;;;10.81;77.36;99734.91;10377211;28;20433;-73
2022/05/04 23:19:42;;;;;;;19.00;3.25;;;;;;;11.48;77.72;99861.50;10375042;28;20041;-73
2022/05/04 23:24:43;;;;;;;20.35;2.97;;;;;;;11.59;77.95;99890.31;10374352;28;20104;-73
2022/05/04 23:29:44;;;;;;;19.48;3.30;;;;;;;11.62;77.93;99898.75;10374885;28;20044;-73
2022/05/04 23:34:44;;;;;;;20.83;3.80;;;;;;;10.82;77.97;99760.47;10375690;28;20042;-73
2022/05/04 23:39:46;;;;;;;15.85;3.15;;;;;;;11.73;77.88;99901.94;10375407;28;20052;-73
2022/05/04 23:44:47;;;;;;;14.55;3.33;;;;;;;11.75;77.91;99902.56;10374883;28;20860;-73
2022/05/04 23:49:48;;;;;;;15.23;3.05;;;;;;;11.53;77.73;99856.47;10373871;28;20034;-73